Time;durP1;ratioP1;P1;durP2;ratioP2;P2;SDS_P1;SDS_P2;PMS_P1;PMS_P2;Temp;Humidity;BMP_temperature;BMP_pressure;BME280_temperature;BME280_humidity;BME280_pressure;Samples;Min_cycle;Max_cycle;Signal;HPM_P1;HPM_P2
2022/01/01 00:01:05;;;;;;;19.30;9.48;;;;;;;10.10;100.00;100222.88;4957070;28;20043;-60
2022/01/01 00:03:30;;;;;;;16.55;9.13;;;;;;;10.09;100.00;100221.25;4953922;28;20039;-60
2022/01/01 00:05:56;;;;;;;20.77;10.57;;;;;;;10.11;100.00;100218.38;4951515;28;20046;-60
2022/01/01 00:08:21;;;;;;;23.55;10.13;;;;;;;10.07;100.00;100212.59;4946642;28;20031;-60
2022/01/01 00:10:46;;;;;;;20.40;11.00;;;;;;;10.09;100.00;100215.91;4948614;28;20039;-60
2022/01/01 00:13:13;;;;;;;15.40;9.52;;;;;;;10.10;100.00;100217.53;4949201;28;20488;-60
2022/01/01 00:15:39;;;;;;;20.73;10.38;;;;;;;10.09;100.00;100220.44;4948419;28;20580;-59
2022/01/01 00:18:04;;;;;;;15.27;9.90;;;;;;;10.08;100.00;100218.78;4950537;28;20062;-60
2022/01/01 00:20:30;;;;;;;18.20;10.40;;;;;;;10.13;100.00;100227.84;4945160;28;20047;-60
2022/01/01 00:22:55;;;;;;;21.25;10.43;;;;;;;10.11;100.00;100218.38;4946375;28;20540;-60
2022/01/01 00:25:20;;;;;;;21.25;10.35;;;;;;;10.10;100.00;100217.53;4941890;28;20058;-59
2022/01/01 00:27:46;;;;;;;22.25;11.02;;;;;;;10.11;100.00;100229.09;4946642;28;20015;-59
2022/01/01 00:30:12;;;;;;;20.90;11.23;;;;;;;10.07;100.00;100215.28;4946725;28;20370;-59
2022/01/01 00:32:37;;;;;;;20.42;11.10;;;;;;;10.05;100.00;100214.69;4946845;28;20057;-59
2022/01/01 00:35:04;;;;;;;24.38;11.27;;;;;;;10.01;100.00;100207.28;4941997;28;20035;-60
2022/01/01 00:37:29;;;;;;;23.15;11.43;;;;;;;10.00;100.00;100206.47;4949946;28;20113;-60
2022/01/01 00:39:55;;;;;;;20.45;11.13;;;;;;;9.98;100.00;100203.16;4946979;28;20042;-59
2022/01/01 00:42:22;;;;;;;28.17;12.57;;;;;;;10.03;100.00;100207.88;4948426;28;20051;-60
2022/01/01 00:44:47;;;;;;;21.50;11.50;;;;;;;9.94;100.00;100212.69;4957317;28;20054;-60
2022/01/01 00:47:12;;;;;;;17.98;9.77;;;;;;;9.99;100.00;100204.84;4950362;28;20046;-59
2022/01/01 00:49:38;;;;;;;22.05;10.65;;;;;;;9.90;100.00;100216.81;4950754;28;20451;-60
2022/01/01 00:52:03;;;;;;;18.67;10.15;;;;;;;9.93;100.00;100219.06;4948059;28;20418;-61
2022/01/01 00:54:29;;;;;;;18.30;10.20;;;;;;;9.90;100.00;100223.00;4949747;28;20141;-61
2022/01/01 00:56:54;;;;;;;23.05;10.95;;;;;;;9.95;100.00;100227.72;4943509;28;20071;-59
2022/01/01 00:59:20;;;;;;;19.40;10.93;;;;;;;9.97;100.00;100228.31;4946940;28;20996;-61
2022/01/01 01:01:46;;;;;;;17.05;9.35;;;;;;;9.99;100.00;100226.25;4949199;28;20439;-62
2022/01/01 01:04:12;;;;;;;19.35;10.55;;;;;;;9.96;100.00;100225.84;4945735;28;20138;-60
2022/01/01 01:06:37;;;;;;;18.80;9.80;;;;;;;9.93;100.00;100217.22;4951524;28;20078;-61
2022/01/01 01:09:03;;;;;;;19.05;9.63;;;;;;;9.99;100.00;100215.53;4945112;28;20031;-60
2022/01/01 01:11:29;;;;;;;18.35;9.75;;;;;;;9.98;100.00;100224.59;4958164;28;20537;-61
2022/01/01 01:13:59;;;;;;;15.90;9.05;;;;;;;9.99;100.00;100220.91;4948987;28;20019;-59
2022/01/01 01:16:27;;;;;;;18.60;11.05;;;;;;;9.98;100.00;100232.63;4954538;28;20049;-59
2022/01/01 01:18:54;;;;;;;19.35;11.00;;;;;;;10.02;100.00;100233.03;4944177;28;20027;-59
2022/01/01 01:21:23;;;;;;;20.40;9.90;;;;;;;10.03;100.00;100226.63;4946796;28;20044;-59
2022/01/01 01:23:49;;;;;;;29.27;11.43;;;;;;;10.02;100.00;100231.19;4950375;28;20500;-59
2022/01/01 01:26:14;;;;;;;16.13;8.73;;;;;;;10.04;100.00;100234.47;4946761;28;20039;-61
2022/01/01 01:28:46;;;;;;;19.33;9.77;;;;;;;10.09;100.00;100237.31;4954608;28;20031;-59
2022/01/01 01:31:12;;;;;;;20.98;8.73;;;;;;;10.17;100.00;100228.22;4956343;28;20051;-60
2022/01/01 01:33:37;;;;;;;19.20;9.35;;;;;;;10.15;100.00;100236.44;4952207;28;20035;-61
2022/01/01 01:36:02;;;;;;;18.05;9.90;;;;;;;10.22;99.90;100235.59;4946953;28;20035;-61
2022/01/01 01:38:28;;;;;;;18.77;9.70;;;;;;;10.17;99.85;100227.41;4956295;28;20765;-61
2022/01/01 01:40:53;;;;;;;19.25;9.25;;;;;;;10.18;99.87;100221.81;4950541;28;20727;-60
2022/01/01 01:43:19;;;;;;;18.92;9.23;;;;;;;10.18;99.73;100215.63;4950919;28;20035;-61
2022/01/01 01:45:44;;;;;;;14.65;9.13;;;;;;;10.09;100.00;100217.75;4949729;28;20058;-61
2022/01/01 01:48:10;;;;;;;15.88;9.95;;;;;;;10.06;100.00;100219.00;4953657;28;20489;-59
2022/01/01 01:50:37;;;;;;;18.55;9.57;;;;;;;10.09;100.00;100209.72;4950765;28;20047;-62
2022/01/01 01:53:03;;;;;;;18.17;9.07;;;;;;;10.05;100.00;100214.69;4947919;28;20027;-61
2022/01/01 01:55:28;;;;;;;17.42;9.45;;;;;;;10.09;100.00;100213.22;4949469;28;20043;-61
2022/01/01 01:57:54;;;;;;;17.23;9.15;;;;;;;10.04;100.00;100218.41;4948367;28;20042;-61
2022/01/01 02:03:05;;;;;;;15.45;8.65;;;;;;;10.13;100.00;100216.28;4953358;28;20070;-61
2022/01/01 02:05:34;;;;;;;15.98;9.85;;;;;;;10.09;100.00;100215.91;4951049;28;20323;-61
2022/01/01 02:07:59;;;;;;;14.63;9.15;;;;;;;10.13;99.61;100217.13;4946391;28;20351;-61
2022/01/01 02:10:25;;;;;;;23.13;9.52;;;;;;;10.08;100.00;100213.41;4949302;28;20494;-61
2022/01/01 02:12:54;;;;;;;15.18;7.47;;;;;;;10.12;100.00;100218.13;4951886;28;20023;-61
2022/01/01 02:16:00;;;;;;;19.60;9.88;;;;;;;10.04;100.00;100213.03;4945775;28;20118;-61
2022/01/01 02:18:25;;;;;;;20.80;9.23;;;;;;;10.04;100.00;100213.03;4952196;28;20568;-60
2022/01/01 02:20:51;;;;;;;19.45;10.20;;;;;;;10.03;100.00;100213.25;4953977;28;20043;-61
2022/01/01 02:23:22;;;;;;;17.50;9.18;;;;;;;10.03;100.00;100222.09;4950366;28;20112;-61
2022/01/01 02:25:51;;;;;;;18.35;9.73;;;;;;;9.98;100.00;100221.91;4948790;28;20363;-61
2022/01/01 02:28:18;;;;;;;19.58;9.98;;;;;;;9.96;100.00;100224.00;4949514;28;20027;-59
2022/01/01 02:30:43;;;;;;;23.52;10.07;;;;;;;9.96;100.00;100224.00;4948636;28;20038;-59
2022/01/01 02:33:09;;;;;;;23.48;11.02;;;;;;;9.96;100.00;100224.00;4950657;28;20398;-59
2022/01/01 02:35:34;;;;;;;16.73;10.43;;;;;;;9.96;100.00;100215.97;4952280;28;20047;-59
2022/01/01 02:37:59;;;;;;;21.55;9.93;;;;;;;9.99;100.00;100225.44;4950815;28;20513;-60
2022/01/01 02:40:25;;;;;;;17.67;10.55;;;;;;;9.99;100.00;100226.25;4951279;28;20047;-61
2022/01/01 02:42:51;;;;;;;17.75;9.77;;;;;;;10.03;100.00;100232.00;4950980;28;20022;-59
2022/01/01 02:45:17;;;;;;;24.88;10.18;;;;;;;10.03;100.00;100235.50;4951392;28;20029;-59
2022/01/01 02:47:42;;;;;;;17.05;9.48;;;;;;;10.03;99.74;100232.81;4947640;28;20038;-59
2022/01/01 02:50:08;;;;;;;19.60;10.07;;;;;;;10.00;100.00;100237.78;4942049;28;20398;-59
2022/01/01 02:52:34;;;;;;;19.23;9.52;;;;;;;10.03;99.82;100242.72;4954800;28;20051;-59
2022/01/01 02:54:59;;;;;;;24.83;10.30;;;;;;;9.99;100.00;100242.31;4949997;28;20081;-59
2022/01/01 02:57:25;;;;;;;27.45;11.48;;;;;;;10.02;100.00;100249.13;4947342;28;20407;-59
2022/01/01 02:59:50;;;;;;;22.90;9.45;;;;;;;10.09;99.57;100252.59;4953839;28;20548;-62
2022/01/01 03:02:15;;;;;;;18.73;10.40;;;;;;;10.08;99.39;100249.09;4948452;28;20307;-59
2022/01/01 03:04:41;;;;;;;23.65;9.77;;;;;;;10.07;99.61;100247.44;4950121;28;20031;-60
2022/01/01 03:07:07;;;;;;;20.13;10.43;;;;;;;10.07;99.68;100244.75;4950977;28;20047;-59
2022/01/01 03:09:35;;;;;;;22.13;10.13;;;;;;;10.13;99.38;100253.78;4944270;28;20031;-61
2022/01/01 03:12:05;;;;;;;23.77;10.30;;;;;;;10.18;98.79;100251.28;4945631;28;20039;-59
2022/01/01 03:14:30;;;;;;;22.05;10.00;;;;;;;10.15;98.71;100247.16;4952317;28;20387;-59
2022/01/01 03:16:56;;;;;;;19.70;9.98;;;;;;;10.18;98.76;100250.47;4948576;28;20050;-59
2022/01/01 03:19:21;;;;;;;19.92;9.73;;;;;;;10.20;98.39;100251.88;4943645;28;20658;-60
2022/01/01 03:21:47;;;;;;;18.90;9.70;;;;;;;10.15;98.24;100263.25;4947857;28;20382;-59
2022/01/01 03:24:12;;;;;;;16.17;9.73;;;;;;;10.26;97.91;100263.59;4943973;28;20081;-59
2022/01/01 03:26:37;;;;;;;18.02;9.23;;;;;;;10.32;97.29;100268.13;4951837;28;20039;-59
2022/01/01 03:29:03;;;;;;;19.67;9.32;;;;;;;10.30;97.39;100256.81;4947652;28;20015;-59
2022/01/01 03:31:28;;;;;;;16.75;9.25;;;;;;;10.30;97.30;100254.13;4946358;28;20040;-59
2022/01/01 03:33:54;;;;;;;17.83;9.00;;;;;;;10.26;97.19;100259.09;4951463;28;20031;-59
2022/01/01 03:36:19;;;;;;;22.67;9.68;;;;;;;10.20;97.61;100261.78;4950411;28;20736;-59
2022/01/01 03:38:45;;;;;;;22.38;9.77;;;;;;;10.21;97.90;100263.41;4947308;28;20041;-59
2022/01/01 03:41:10;;;;;;;23.55;10.20;;;;;;;10.21;97.90;100272.31;4955137;28;20039;-60
2022/01/01 03:43:36;;;;;;;19.55;9.90;;;;;;;10.22;97.46;100273.13;4947638;28;20035;-60
2022/01/01 03:46:01;;;;;;;23.40;10.07;;;;;;;10.24;97.63;100271.06;4946620;28;20051;-59
2022/01/01 03:48:27;;;;;;;17.33;9.50;;;;;;;10.16;97.53;100264.09;4946682;28;20399;-59
2022/01/01 03:50:52;;;;;;;19.48;10.20;;;;;;;10.14;97.24;100266.97;4947089;28;20580;-61
2022/01/01 03:53:18;;;;;;;25.80;9.23;;;;;;;10.19;96.85;100263.66;4946886;28;20031;-60
2022/01/01 03:55:43;;;;;;;22.85;9.35;;;;;;;10.22;96.92;100263.22;4952870;28;20050;-59
2022/01/01 03:58:09;;;;;;;24.50;10.07;;;;;;;10.20;96.95;100259.09;4947006;28;20031;-59
2022/01/01 04:00:34;;;;;;;17.30;8.82;;;;;;;10.13;97.05;100262.66;4950305;28;20039;-59
2022/01/01 04:03:05;;;;;;;22.55;9.32;;;;;;;10.14;97.07;100261.63;4952924;28;20446;-59
2022/01/01 04:05:31;;;;;;;17.65;9.75;;;;;;;10.11;96.92;100256.69;4955888;28;20130;-59
2022/01/01 04:07:56;;;;;;;22.25;9.93;;;;;;;10.05;97.20;100256.72;4950399;28;20255;-59
2022/01/01 04:10:21;;;;;;;21.50;9.57;;;;;;;10.06;97.64;100258.34;4955675;28;20045;-59
2022/01/01 04:12:47;;;;;;;19.92;10.10;;;;;;;9.99;98.00;100255.72;4947662;28;20552;-59
2022/01/01 04:15:12;;;;;;;22.38;10.23;;;;;;;9.92;98.65;100246.88;4948360;28;20338;-59
2022/01/01 04:17:38;;;;;;;19.17;10.15;;;;;;;9.90;98.95;100248.97;4950068;28;20035;-59
2022/01/01 04:20:04;;;;;;;23.65;10.40;;;;;;;9.82;99.02;100252.69;4954331;28;20106;-60
2022/01/01 04:22:30;;;;;;;23.30;10.82;;;;;;;9.85;99.30;100248.78;4951590;28;20019;-61
2022/01/01 04:24:55;;;;;;;18.38;9.93;;;;;;;9.91;99.35;100256.78;4951506;28;20054;-59
2022/01/01 04:27:21;;;;;;;21.35;11.90;;;;;;;9.87;98.52;100262.78;4944535;28;20050;-60
2022/01/01 04:29:46;;;;;;;18.70;9.40;;;;;;;9.85;99.06;100264.84;4957144;28;20035;-60
2022/01/01 04:32:14;;;;;;;21.65;9.68;;;;;;;9.92;98.92;100262.97;4949442;28;20038;-61
2022/01/01 04:34:39;;;;;;;19.40;10.52;;;;;;;9.92;98.84;100271.00;4946960;28;20038;-61
2022/01/01 04:37:11;;;;;;;19.25;10.52;;;;;;;9.98;98.06;100270.13;4951917;28;20054;-59
2022/01/01 04:39:36;;;;;;;26.00;10.32;;;;;;;9.93;98.41;100275.31;4941922;28;20081;-59
2022/01/01 04:42:02;;;;;;;25.98;10.50;;;;;;;9.97;98.10;100270.34;4950275;28;20114;-59
2022/01/01 04:44:27;;;;;;;23.60;10.65;;;;;;;9.96;98.16;100261.50;4953978;28;20031;-61
2022/01/01 04:46:53;;;;;;;18.02;10.90;;;;;;;9.97;97.99;100260.47;4955339;28;20849;-61
2022/01/01 04:49:19;;;;;;;20.33;10.70;;;;;;;9.88;98.43;100261.72;4954207;28;20023;-62
2022/01/01 04:51:44;;;;;;;20.90;10.70;;;;;;;9.88;98.65;100261.72;4950648;28;20263;-61
2022/01/01 04:54:15;;;;;;;24.38;10.65;;;;;;;9.91;98.29;100245.25;4965594;28;20031;-59
2022/01/01 04:56:44;;;;;;;15.98;8.68;;;;;;;9.94;98.06;100240.28;4946610;28;20161;-59
2022/01/01 04:59:10;;;;;;;22.00;10.70;;;;;;;9.91;97.96;100245.25;4950748;28;20031;-61
2022/01/01 05:01:36;;;;;;;19.25;10.45;;;;;;;9.89;98.19;100247.31;4953026;28;20047;-61
2022/01/01 05:04:01;;;;;;;23.95;11.00;;;;;;;9.90;97.92;100243.59;4952780;28;20023;-60
2022/01/01 05:06:27;;;;;;;22.95;11.65;;;;;;;9.94;97.82;100250.19;4952466;28;20565;-61
2022/01/01 05:08:52;;;;;;;22.65;10.77;;;;;;;9.91;97.55;100261.31;4956157;28;20027;-61
2022/01/01 05:11:18;;;;;;;22.25;9.93;;;;;;;9.89;97.75;100253.50;4952530;28;20489;-61
2022/01/01 05:13:43;;;;;;;21.83;11.70;;;;;;;9.87;97.93;100252.88;4950117;28;20030;-61
2022/01/01 05:16:14;;;;;;;26.35;11.40;;;;;;;9.89;98.43;100247.31;4946995;28;20050;-60
2022/01/01 05:18:39;;;;;;;24.35;12.00;;;;;;;9.88;98.08;100251.03;4953143;28;20029;-60
2022/01/01 05:21:04;;;;;;;23.70;12.13;;;;;;;9.83;98.37;100248.16;4950032;28;20394;-60
2022/01/01 05:23:30;;;;;;;30.10;13.27;;;;;;;9.76;98.55;100247.34;4952588;28;20031;-60
2022/01/01 05:25:55;;;;;;;22.70;11.68;;;;;;;9.70;98.89;100247.16;4948634;28;20068;-60
2022/01/01 05:28:21;;;;;;;27.75;13.38;;;;;;;9.68;99.53;100241.22;4954790;28;20666;-59
2022/01/01 05:30:46;;;;;;;24.77;13.55;;;;;;;9.56;100.00;100242.94;4954403;28;20533;-60
2022/01/01 05:33:11;;;;;;;27.55;14.07;;;;;;;9.55;100.00;100238.59;4951023;28;20521;-60
2022/01/01 05:35:37;;;;;;;28.50;14.65;;;;;;;9.56;100.00;100237.56;4950611;28;20046;-60
2022/01/01 05:38:04;;;;;;;27.80;13.65;;;;;;;9.55;100.00;100241.25;4960380;28;20019;-60
2022/01/01 05:40:30;;;;;;;36.92;14.35;;;;;;;9.58;100.00;100238.16;4949331;28;20050;-60
2022/01/01 05:42:56;;;;;;;29.42;13.55;;;;;;;9.60;100.00;100244.13;4951102;28;20027;-60
2022/01/01 05:45:21;;;;;;;40.55;16.25;;;;;;;9.49;100.00;100232.22;4949578;28;20347;-60
2022/01/01 05:47:47;;;;;;;31.25;15.63;;;;;;;9.45;100.00;100240.88;4935964;29;20356;-60
2022/01/01 05:50:12;;;;;;;33.70;15.18;;;;;;;9.43;100.00;100245.63;4951902;28;20026;-60
2022/01/01 05:52:38;;;;;;;34.33;15.43;;;;;;;9.40;100.00;100248.72;4952490;28;20441;-60
2022/01/01 05:55:03;;;;;;;32.75;16.55;;;;;;;9.41;100.00;100253.03;4947580;28;20051;-60
2022/01/01 05:57:29;;;;;;;32.70;15.77;;;;;;;9.33;100.00;100256.75;4950209;28;20035;-60
2022/01/01 05:59:54;;;;;;;31.58;14.38;;;;;;;9.27;100.00;100261.09;4945935;28;20031;-60
2022/01/01 06:02:19;;;;;;;29.70;14.93;;;;;;;9.15;100.00;100260.06;4952921;28;20039;-59
2022/01/01 06:04:45;;;;;;;26.90;13.82;;;;;;;9.08;100.00;100261.94;4955973;28;20022;-59
2022/01/01 06:07:10;;;;;;;36.15;15.75;;;;;;;9.02;100.00;100266.25;4946340;28;20058;-60
2022/01/01 06:09:36;;;;;;;30.40;15.43;;;;;;;8.97;100.00;100274.09;4956277;28;20030;-60
2022/01/01 06:12:01;;;;;;;33.65;15.85;;;;;;;8.93;100.00;100282.72;4955140;28;20122;-60
2022/01/01 06:14:27;;;;;;;32.22;14.48;;;;;;;8.90;100.00;100275.94;4957649;28;20030;-59
2022/01/01 06:16:52;;;;;;;27.67;15.27;;;;;;;8.94;100.00;100276.38;4950890;28;20257;-61
2022/01/01 06:19:18;;;;;;;32.17;14.88;;;;;;;8.92;100.00;100281.09;4953319;28;20061;-62
2022/01/01 06:21:43;;;;;;;28.48;15.10;;;;;;;8.94;100.00;100290.56;4948612;28;20046;-61
2022/01/01 06:24:09;;;;;;;30.63;13.85;;;;;;;9.01;100.00;100287.84;4950661;28;20031;-61
2022/01/01 06:26:34;;;;;;;28.38;13.73;;;;;;;8.98;100.00;100304.31;4948381;28;20094;-61
2022/01/01 06:29:00;;;;;;;26.95;12.85;;;;;;;9.06;100.00;100298.75;4947977;28;20351;-61
2022/01/01 06:31:25;;;;;;;34.45;13.93;;;;;;;9.06;100.00;100296.09;4949918;28;20035;-61
2022/01/01 06:33:51;;;;;;;27.75;13.07;;;;;;;9.06;100.00;100301.44;4946885;28;20043;-61
2022/01/01 06:36:17;;;;;;;25.48;10.80;;;;;;;9.11;100.00;100299.00;4949928;28;20494;-59
2022/01/01 06:38:43;;;;;;;30.73;12.30;;;;;;;9.22;100.00;100301.03;4948190;28;20035;-61
2022/01/01 06:41:08;;;;;;;23.42;12.27;;;;;;;9.20;100.00;100297.72;4947503;28;20538;-61
2022/01/01 06:43:34;;;;;;;25.75;12.60;;;;;;;9.23;100.00;100302.66;4950210;28;20090;-59
2022/01/01 06:45:59;;;;;;;26.48;11.93;;;;;;;9.16;100.00;100295.66;4949775;28;20138;-61
2022/01/01 06:48:25;;;;;;;25.70;12.10;;;;;;;9.19;100.00;100295.28;4953413;28;20058;-60
2022/01/01 06:50:51;;;;;;;22.65;11.63;;;;;;;9.26;99.93;100296.91;4952835;28;20046;-61
2022/01/01 06:53:17;;;;;;;24.95;10.60;;;;;;;9.27;99.85;100298.53;4948374;28;20034;-59
2022/01/01 06:55:42;;;;;;;26.45;10.98;;;;;;;9.33;99.61;100301.41;4951716;28;20223;-59
2022/01/01 06:58:08;;;;;;;22.85;10.02;;;;;;;9.37;99.33;100303.47;4946988;28;20542;-61
2022/01/01 07:00:33;;;;;;;24.92;10.93;;;;;;;9.37;99.10;100305.34;4949465;28;20051;-61
2022/01/01 07:02:59;;;;;;;21.88;11.18;;;;;;;9.39;98.92;100300.59;4951882;28;20026;-61
2022/01/01 07:05:24;;;;;;;19.35;10.43;;;;;;;9.40;99.07;100308.41;4951092;28;20047;-61
2022/01/01 07:07:50;;;;;;;22.02;10.95;;;;;;;9.37;99.07;100305.34;4947237;28;20078;-61
2022/01/01 07:10:15;;;;;;;25.02;10.43;;;;;;;9.36;98.85;100309.03;4965232;28;20030;-61
2022/01/01 07:12:41;;;;;;;19.83;10.27;;;;;;;9.40;98.72;100307.59;4948981;28;20027;-61
2022/01/01 07:15:07;;;;;;;28.88;11.70;;;;;;;9.42;98.59;100317.03;4944387;28;20131;-61
2022/01/01 07:17:32;;;;;;;25.45;10.57;;;;;;;9.44;99.14;100330.22;4953675;28;20185;-59
2022/01/01 07:19:57;;;;;;;24.92;11.35;;;;;;;9.39;99.27;100316.66;4946088;28;20043;-59
2022/01/01 07:22:23;;;;;;;23.42;11.40;;;;;;;9.33;99.67;100312.13;4946771;28;20422;-60
2022/01/01 07:24:51;;;;;;;25.30;11.52;;;;;;;9.33;99.84;100306.78;4947488;28;20038;-59
2022/01/01 07:27:17;;;;;;;27.45;12.60;;;;;;;9.39;100.00;100316.66;4945620;28;20631;-59
2022/01/01 07:29:42;;;;;;;23.75;11.90;;;;;;;9.43;100.00;100323.22;4946869;28;20027;-61
2022/01/01 07:32:08;;;;;;;24.10;11.80;;;;;;;9.45;100.00;100321.16;4944576;28;20423;-59
2022/01/01 07:34:33;;;;;;;21.80;10.77;;;;;;;9.47;99.74;100319.09;4958133;28;20398;-61
2022/01/01 07:36:59;;;;;;;22.40;10.63;;;;;;;9.56;99.45;100333.91;4943688;28;20289;-61
2022/01/01 07:39:24;;;;;;;21.63;10.73;;;;;;;9.59;99.21;100338.84;4949393;28;20027;-60
2022/01/01 07:41:49;;;;;;;26.77;11.93;;;;;;;9.57;99.33;100343.59;4947032;28;20039;-61
2022/01/01 07:44:15;;;;;;;27.70;12.23;;;;;;;9.56;99.44;100338.44;4949054;28;20022;-61
2022/01/01 07:46:40;;;;;;;23.25;11.07;;;;;;;9.61;99.32;100344.81;4955855;28;20046;-61
2022/01/01 07:49:06;;;;;;;22.38;10.93;;;;;;;9.61;99.18;100354.69;4946841;28;20034;-61
2022/01/01 07:51:32;;;;;;;19.88;10.95;;;;;;;9.60;99.39;100359.22;4948491;28;20050;-61
2022/01/01 07:53:57;;;;;;;18.25;9.75;;;;;;;9.61;99.30;100355.53;4953436;28;20026;-61
2022/01/01 07:56:22;;;;;;;21.33;9.93;;;;;;;9.66;98.76;100350.38;4953216;28;20039;-61
2022/01/01 07:58:48;;;;;;;23.00;10.90;;;;;;;9.66;98.73;100347.69;4952952;28;20026;-61
2022/01/01 08:01:13;;;;;;;22.77;11.18;;;;;;;9.68;98.85;100348.31;4953561;28;20707;-60
2022/01/01 08:03:39;;;;;;;24.02;11.38;;;;;;;9.67;98.77;100351.19;4957590;28;20086;-61
2022/01/01 08:06:04;;;;;;;21.58;11.95;;;;;;;9.71;98.73;100355.91;4955831;28;20039;-60
2022/01/01 08:08:29;;;;;;;19.45;11.95;;;;;;;9.65;98.98;100356.75;4946048;28;20470;-59
2022/01/01 08:10:55;;;;;;;21.33;10.98;;;;;;;9.65;99.16;100353.25;4951967;28;20035;-59
2022/01/01 08:13:25;;;;;;;22.15;11.18;;;;;;;9.64;99.82;100349.75;4959953;28;20027;-60
2022/01/01 08:15:54;;;;;;;20.42;10.38;;;;;;;9.67;99.42;100346.66;4949512;28;20157;-60
2022/01/01 08:18:19;;;;;;;25.20;12.35;;;;;;;9.64;99.77;100349.75;4949258;28;20031;-60
2022/01/01 08:20:45;;;;;;;19.42;10.98;;;;;;;9.67;99.11;100360.03;4956558;28;20583;-60
2022/01/01 08:23:11;;;;;;;24.25;12.63;;;;;;;9.70;99.35;100361.47;4954308;28;20567;-60
2022/01/01 08:25:36;;;;;;;26.30;12.15;;;;;;;9.70;99.66;100354.25;4952381;28;20903;-60
2022/01/01 08:28:02;;;;;;;20.00;11.20;;;;;;;9.74;99.22;100359.22;4950501;28;20435;-60
2022/01/01 08:30:28;;;;;;;22.83;10.35;;;;;;;9.68;99.62;100359.03;4956005;28;20669;-60
2022/01/01 08:33:01;;;;;;;23.00;12.32;;;;;;;9.66;99.75;100355.72;4951447;28;20023;-60
2022/01/01 08:35:26;;;;;;;21.55;10.57;;;;;;;9.66;99.68;100355.72;4948664;28;20247;-60
2022/01/01 08:37:52;;;;;;;22.50;12.52;;;;;;;9.68;99.96;100345.63;4954557;28;20026;-60
2022/01/01 08:40:17;;;;;;;27.85;13.15;;;;;;;9.70;100.00;100353.44;4948153;28;20038;-59
2022/01/01 08:42:42;;;;;;;24.90;11.10;;;;;;;9.67;99.86;100345.84;4959914;28;20319;-60
2022/01/01 08:45:08;;;;;;;24.48;11.70;;;;;;;9.78;99.42;100347.03;4952716;28;20394;-60
2022/01/01 08:47:33;;;;;;;23.95;12.13;;;;;;;9.79;99.56;100338.81;4949206;28;20474;-60
2022/01/01 08:49:59;;;;;;;19.70;11.13;;;;;;;9.82;99.10;100354.44;4948478;28;20046;-60
2022/01/01 08:52:24;;;;;;;29.83;12.18;;;;;;;9.86;99.09;100344.13;4953805;28;20067;-60
2022/01/01 08:54:55;;;;;;;21.92;11.52;;;;;;;9.86;99.28;100344.97;4954638;28;20031;-60
2022/01/01 08:57:20;;;;;;;;;;;;;;;9.91;98.80;100355.06;4945663;28;20077;-60
2022/01/01 08:59:45;;;;;;;20.20;11.02;;;;;;;9.86;98.94;100354.84;4952779;28;20012;-60
2022/01/01 09:02:11;;;;;;;25.35;11.65;;;;;;;9.90;99.01;100356.06;4949832;28;20050;-60
2022/01/01 09:04:36;;;;;;;23.92;10.90;;;;;;;9.94;98.60;100355.44;4954541;28;20031;-60
2022/01/01 09:07:02;;;;;;;22.05;10.65;;;;;;;9.90;98.90;100345.34;4949200;28;20062;-61
2022/01/01 09:09:27;;;;;;;19.38;11.05;;;;;;;9.90;98.91;100345.34;4950930;28;20035;-62
2022/01/01 09:11:53;;;;;;;23.35;11.35;;;;;;;9.88;99.25;100342.06;4953577;28;20065;-61
2022/01/01 09:14:18;;;;;;;19.38;11.52;;;;;;;9.88;99.30;100337.56;4954339;28;20360;-62
2022/01/01 09:16:44;;;;;;;21.27;11.18;;;;;;;9.89;99.39;100341.03;4951285;28;20042;-60
2022/01/01 09:19:09;;;;;;;21.55;11.70;;;;;;;9.99;99.04;100338.75;4952940;28;20046;-61
2022/01/01 09:21:34;;;;;;;20.75;11.43;;;;;;;9.93;99.33;100340.41;4954072;28;20153;-61
2022/01/01 09:24:00;;;;;;;20.15;11.27;;;;;;;9.94;99.11;100347.41;4949170;28;20023;-59
2022/01/01 09:26:26;;;;;;;21.77;9.95;;;;;;;10.08;98.70;100345.53;4958067;28;20431;-58
2022/01/01 09:28:51;;;;;;;25.92;11.90;;;;;;;10.12;98.50;100344.03;4956410;28;20086;-59
2022/01/01 09:31:17;;;;;;;20.17;11.43;;;;;;;10.22;98.42;100348.13;4949037;28;20078;-61
2022/01/01 09:33:42;;;;;;;27.95;12.00;;;;;;;10.33;97.87;100345.66;4955227;28;20030;-60
2022/01/01 09:36:09;;;;;;;21.73;11.20;;;;;;;10.32;97.88;100352.03;4942904;28;20044;-59
2022/01/01 09:38:35;;;;;;;22.73;11.80;;;;;;;10.20;98.60;100351.03;4958301;28;20062;-59
2022/01/01 09:41:00;;;;;;;27.50;13.18;;;;;;;10.34;98.40;100354.50;4943370;28;20123;-59
2022/01/01 09:43:28;;;;;;;23.35;12.25;;;;;;;10.33;97.82;100355.53;4948744;28;20050;-59
2022/01/01 09:45:54;;;;;;;22.17;11.45;;;;;;;10.33;98.20;100348.34;4954038;28;20045;-59
2022/01/01 09:48:21;;;;;;;21.38;11.30;;;;;;;10.39;97.44;100351.19;4953398;28;20030;-60
2022/01/01 09:50:49;;;;;;;23.38;11.75;;;;;;;10.40;97.51;100356.31;4949681;28;20035;-61
2022/01/01 09:53:15;;;;;;;20.25;10.35;;;;;;;10.32;97.29;100359.25;4950096;28;20390;-60
2022/01/01 09:55:43;;;;;;;25.17;11.65;;;;;;;10.31;97.40;100357.63;4951761;28;20037;-60
2022/01/01 09:58:08;;;;;;;27.80;12.68;;;;;;;10.39;96.95;100360.06;4952665;28;20030;-59
2022/01/01 10:00:34;;;;;;;17.77;10.95;;;;;;;10.46;96.36;100370.72;4954635;28;20047;-60
2022/01/01 10:02:59;;;;;;;24.52;11.77;;;;;;;10.43;97.37;100365.78;4949355;28;20059;-60
2022/01/01 10:05:25;;;;;;;18.92;10.50;;;;;;;10.45;96.68;100359.19;4947462;28;20567;-60
2022/01/01 10:07:50;;;;;;;22.35;10.77;;;;;;;10.35;96.89;100365.00;4957212;28;20119;-60
2022/01/01 10:10:21;;;;;;;27.40;11.30;;;;;;;10.42;97.40;100359.63;4951905;28;20038;-60
2022/01/01 10:12:46;;;;;;;;;;;;;;;10.56;96.04;100355.84;4958817;28;20671;-58
2022/01/01 10:15:11;;;;;;;22.50;11.20;;;;;;;10.45;95.94;100356.50;4952795;28;19948;-60
2022/01/01 10:17:37;;;;;;;22.45;11.65;;;;;;;10.46;96.69;100354.63;4959448;28;20027;-60
2022/01/01 10:20:03;;;;;;;21.65;10.65;;;;;;;10.55;96.35;100354.19;4953236;28;20073;-61
2022/01/01 10:22:29;;;;;;;19.83;10.25;;;;;;;10.55;95.60;100348.81;4950078;28;20027;-60
2022/01/01 10:27:55;;;;;;;26.77;11.50;;;;;;;10.70;95.07;100347.69;4945156;28;20130;-60
2022/01/01 10:30:34;;;;;;;20.52;11.13;;;;;;;10.48;96.16;100345.38;4963094;28;20136;-60
2022/01/01 10:33:07;;;;;;;18.20;10.57;;;;;;;10.53;96.35;100350.91;4950160;28;20478;-60
2022/01/01 10:35:40;;;;;;;18.95;9.75;;;;;;;10.47;95.86;100346.38;4955154;28;20556;-60
2022/01/01 10:38:06;;;;;;;23.42;10.23;;;;;;;10.60;96.37;100350.03;4953937;28;20545;-60
2022/01/01 10:40:32;;;;;;;20.70;10.55;;;;;;;10.55;96.14;100348.81;4948234;28;20150;-60
2022/01/01 10:42:58;;;;;;;19.73;10.35;;;;;;;10.56;95.90;100353.16;4954962;28;20528;-60
2022/01/01 10:45:36;;;;;;;17.48;9.85;;;;;;;10.70;95.74;100345.03;5023339;28;20395;-61
2022/01/01 10:48:40;;;;;;;19.23;9.95;;;;;;;10.57;95.13;100351.28;4984815;28;20667;-61
2022/01/01 10:51:10;;;;;;;18.75;10.02;;;;;;;10.61;95.06;100333.75;4988108;28;20141;-60
2022/01/01 10:53:36;;;;;;;19.23;9.88;;;;;;;10.40;95.62;100334.88;4990306;28;20038;-61
2022/01/01 10:56:03;;;;;;;21.25;9.85;;;;;;;10.53;95.42;100332.16;4990949;28;20132;-59
2022/01/01 10:58:34;;;;;;;18.95;8.85;;;;;;;10.50;95.51;100329.88;4989122;28;20880;-61
2022/01/01 11:01:03;;;;;;;20.13;8.95;;;;;;;10.66;95.28;100327.72;4989814;28;20042;-61
2022/01/01 11:03:29;;;;;;;17.35;8.50;;;;;;;10.71;93.76;100319.88;5002840;28;20034;-59
2022/01/01 11:06:11;;;;;;;17.95;8.38;;;;;;;10.61;94.64;100323.03;4971133;28;20781;-61
2022/01/01 11:08:40;;;;;;;17.45;8.50;;;;;;;10.73;94.17;100317.78;5005841;28;20657;-62
2022/01/01 11:11:06;;;;;;;16.48;7.50;;;;;;;10.56;94.22;100328.22;4980995;28;20038;-61
2022/01/01 11:13:32;;;;;;;14.32;6.95;;;;;;;10.53;94.17;100328.63;4989538;28;20027;-61
2022/01/01 11:15:57;;;;;;;17.55;8.35;;;;;;;10.57;94.54;100325.28;4979125;28;20093;-60